createdAt,value
2023-05-25T00:01:00.552Z,5.70
2023-05-25T00:03:32.673Z,6.53
2023-05-25T00:06:01.822Z,6.03
2023-05-25T00:08:30.760Z,5.23
2023-05-25T00:10:58.752Z,4.80
2023-05-25T00:13:26.822Z,5.67
2023-05-25T00:15:54.672Z,5.50
2023-05-25T00:18:22.606Z,5.30
2023-05-25T00:20:54.319Z,5.47
2023-05-25T00:23:22.357Z,5.40
2023-05-25T00:25:50.095Z,6.30
2023-05-25T00:28:18.128Z,5.40
2023-05-25T00:30:46.223Z,6.13
2023-05-25T00:33:13.950Z,5.37
2023-05-25T00:35:44.977Z,5.10
2023-05-25T00:38:19.425Z,5.70
2023-05-25T00:40:47.711Z,5.80
2023-05-25T00:43:16.301Z,6.60
2023-05-25T00:45:44.560Z,4.30
2023-05-25T00:48:14.009Z,6.03
2023-05-25T00:50:45.879Z,5.90
2023-05-25T00:53:15.192Z,5.57
2023-05-25T00:56:11.048Z,7.17
2023-05-25T00:58:43.385Z,6.63
2023-05-25T01:01:15.571Z,5.80
2023-05-25T01:03:54.005Z,6.00
2023-05-25T01:06:24.105Z,6.00
2023-05-25T01:09:03.548Z,5.60
2023-05-25T01:11:44.029Z,6.33
2023-05-25T01:14:13.882Z,6.63
2023-05-25T01:16:44.223Z,6.73
2023-05-25T01:19:12.206Z,6.70
2023-05-25T01:22:12.182Z,5.73
2023-05-25T01:25:15.334Z,6.17
2023-05-25T01:28:06.961Z,6.10
2023-05-25T01:30:43.442Z,5.87
2023-05-25T01:33:12.477Z,5.90
2023-05-25T01:35:43.493Z,6.10
2023-05-25T01:38:12.314Z,6.63
2023-05-25T01:40:40.929Z,6.30
2023-05-25T01:43:08.848Z,6.97
2023-05-25T01:45:37.715Z,5.90
2023-05-25T01:48:51.280Z,5.67
2023-05-25T01:52:00.594Z,6.20
2023-05-25T01:54:47.514Z,6.30
2023-05-25T01:57:19.864Z,6.10
2023-05-25T01:59:52.992Z,6.77
2023-05-25T02:02:22.275Z,7.17
2023-05-25T02:04:57.673Z,6.60
2023-05-25T02:07:25.737Z,7.30
2023-05-25T02:09:53.499Z,7.80
2023-05-25T02:12:21.689Z,8.00
2023-05-25T02:14:49.517Z,8.90
2023-05-25T02:17:20.648Z,6.90
2023-05-25T02:19:53.124Z,7.20
2023-05-25T02:22:23.479Z,7.07
2023-05-25T02:24:51.391Z,8.00
2023-05-25T02:27:19.142Z,7.70
2023-05-25T02:29:49.343Z,6.60
2023-05-25T02:32:17.837Z,7.40
2023-05-25T02:34:47.101Z,6.70
2023-05-25T02:37:15.466Z,6.90
2023-05-25T02:39:43.823Z,6.77
2023-05-25T02:42:11.947Z,6.33
2023-05-25T02:44:39.799Z,7.30
2023-05-25T02:47:08.499Z,6.80
2023-05-25T02:49:36.430Z,6.80
2023-05-25T02:52:05.259Z,6.83
2023-05-25T02:54:33.263Z,6.30
2023-05-25T02:57:03.191Z,6.10
2023-05-25T02:59:32.047Z,6.50
2023-05-25T03:02:00.492Z,6.00
2023-05-25T03:04:31.251Z,6.80
2023-05-25T03:06:59.597Z,5.93
2023-05-25T03:09:27.857Z,6.50
2023-05-25T03:11:56.021Z,6.30
2023-05-25T03:14:25.476Z,6.40
2023-05-25T03:17:00.979Z,7.00
2023-05-25T03:19:28.982Z,6.60
2023-05-25T03:21:57.423Z,6.83
2023-05-25T03:24:26.947Z,7.33
2023-05-25T03:26:56.958Z,6.57
2023-05-25T03:29:24.802Z,6.97
2023-05-25T03:31:52.887Z,7.07
2023-05-25T03:34:24.828Z,7.50
2023-05-25T03:36:53.649Z,7.80
2023-05-25T03:39:22.629Z,7.93
2023-05-25T03:41:52.533Z,9.03
2023-05-25T03:44:20.646Z,8.10
2023-05-25T03:46:48.852Z,7.80
2023-05-25T03:49:17.158Z,9.10
2023-05-25T03:51:45.201Z,8.30
2023-05-25T03:54:14.834Z,8.00
2023-05-25T03:56:42.616Z,8.30
2023-05-25T03:59:12.626Z,8.37
2023-05-25T04:01:41.734Z,8.50
2023-05-25T04:04:10.181Z,8.27
2023-05-25T04:06:38.506Z,8.13
2023-05-25T04:09:07.884Z,9.90
2023-05-25T04:11:35.814Z,8.83
2023-05-25T04:14:03.921Z,9.73
2023-05-25T04:16:35.842Z,8.53
2023-05-25T04:19:04.973Z,9.33
2023-05-25T04:21:33.138Z,10.00
2023-05-25T04:24:01.440Z,9.03
2023-05-25T04:26:30.457Z,9.33
2023-05-25T04:28:59.409Z,8.80
2023-05-25T04:31:35.933Z,10.67
2023-05-25T04:34:29.893Z,8.47
2023-05-25T04:37:09.042Z,8.70
2023-05-25T04:39:37.710Z,8.77
2023-05-25T04:42:06.227Z,9.60
2023-05-25T04:44:36.294Z,8.37
2023-05-25T04:47:08.183Z,8.60
2023-05-25T04:49:36.888Z,9.20
2023-05-25T04:52:06.063Z,9.03
2023-05-25T04:54:35.048Z,8.00
2023-05-25T04:57:04.225Z,8.00
2023-05-25T04:59:33.575Z,8.30
2023-05-25T05:02:02.045Z,7.37
2023-05-25T05:04:30.667Z,8.00
2023-05-25T05:06:59.983Z,9.13
2023-05-25T05:09:30.621Z,8.80
2023-05-25T05:12:01.921Z,11.50
2023-05-25T05:14:32.359Z,9.50
2023-05-25T05:17:00.382Z,9.03
2023-05-25T05:19:29.422Z,9.70
2023-05-25T05:21:57.652Z,8.90
2023-05-25T05:24:27.485Z,8.37
2023-05-25T05:26:58.930Z,7.30
2023-05-25T05:29:39.948Z,7.77
2023-05-25T05:32:09.210Z,8.10
2023-05-25T05:34:37.677Z,8.93
2023-05-25T05:37:11.505Z,6.07
2023-05-25T05:39:39.590Z,6.03
2023-05-25T05:42:08.733Z,5.60
2023-05-25T05:44:37.221Z,5.70
2023-05-25T05:47:05.874Z,4.70
2023-05-25T05:49:34.557Z,5.30
2023-05-25T05:52:04.442Z,5.70
2023-05-25T05:54:34.282Z,5.23
2023-05-25T05:57:07.560Z,4.90
2023-05-25T05:59:35.780Z,6.23
2023-05-25T06:02:04.767Z,4.97
2023-05-25T06:04:33.830Z,5.53
2023-05-25T06:07:02.063Z,5.00
2023-05-25T06:09:30.862Z,4.80
2023-05-25T06:12:01.981Z,5.30
2023-05-25T06:14:30.253Z,4.90
2023-05-25T06:17:02.418Z,5.17
2023-05-25T06:19:32.441Z,5.20
2023-05-25T06:22:00.874Z,4.23
2023-05-25T06:24:29.166Z,4.97
2023-05-25T06:26:57.582Z,4.40
2023-05-25T06:29:26.385Z,4.50
2023-05-25T06:31:55.570Z,4.57
2023-05-25T06:34:24.062Z,4.80
2023-05-25T06:36:54.042Z,3.90
2023-05-25T06:39:23.045Z,4.30
2023-05-25T06:41:51.626Z,4.60
2023-05-25T06:44:28.456Z,5.00
2023-05-25T06:46:56.608Z,4.57
2023-05-25T06:49:25.967Z,4.10
2023-05-25T06:51:53.958Z,4.67
2023-05-25T06:54:21.797Z,4.93
2023-05-25T06:56:50.011Z,5.17
2023-05-25T06:59:18.638Z,4.83
2023-05-25T07:01:49.823Z,5.90
2023-05-25T07:04:18.275Z,5.33
2023-05-25T07:06:46.265Z,4.47
2023-05-25T07:09:14.405Z,5.10
2023-05-25T07:11:42.208Z,5.13
2023-05-25T07:14:09.974Z,5.40
2023-05-25T07:16:37.982Z,4.57
2023-05-25T07:19:06.080Z,4.97
2023-05-25T07:21:34.062Z,5.20
2023-05-25T07:24:01.884Z,4.63
2023-05-25T07:26:32.216Z,5.40
2023-05-25T07:29:01.034Z,5.13
2023-05-25T07:31:28.936Z,6.30
2023-05-25T07:33:56.657Z,4.90
2023-05-25T07:36:25.155Z,6.33
2023-05-25T07:38:53.170Z,5.80
2023-05-25T07:41:21.465Z,5.40
2023-05-25T07:43:49.266Z,6.60
2023-05-25T07:46:17.607Z,5.10
2023-05-25T07:48:45.516Z,8.80
2023-05-25T07:51:13.722Z,7.80
2023-05-25T07:53:42.688Z,6.40
2023-05-25T07:56:11.277Z,6.57
2023-05-25T07:58:39.200Z,6.50
2023-05-25T08:01:07.374Z,7.67
2023-05-25T08:03:48.085Z,7.80
2023-05-25T08:06:17.694Z,6.97
2023-05-25T08:08:45.888Z,6.57
2023-05-25T08:11:17.259Z,5.60
2023-05-25T08:13:45.338Z,5.63
2023-05-25T08:16:13.074Z,5.03
2023-05-25T08:18:41.967Z,5.30
2023-05-25T08:21:09.764Z,6.50
2023-05-25T08:23:42.406Z,5.80
2023-05-25T08:26:31.332Z,6.10
2023-05-25T08:29:01.034Z,5.77
2023-05-25T08:31:28.907Z,6.00
2023-05-25T08:33:57.061Z,5.90
2023-05-25T08:36:26.942Z,4.50
2023-05-25T08:38:55.232Z,5.70
2023-05-25T08:41:23.293Z,5.23
2023-05-25T08:43:51.960Z,5.63
2023-05-25T08:46:31.532Z,5.47
2023-05-25T08:49:15.301Z,5.43
2023-05-25T08:51:53.545Z,6.30
2023-05-25T08:54:32.157Z,6.30
2023-05-25T08:57:24.082Z,6.77
2023-05-25T09:00:11.217Z,6.17
2023-05-25T09:03:18.491Z,5.57
2023-05-25T09:05:47.943Z,5.57
2023-05-25T09:08:17.368Z,5.60
2023-05-25T09:10:45.281Z,4.70
2023-05-25T09:13:21.898Z,4.40
2023-05-25T09:15:53.207Z,6.70
2023-05-25T09:18:21.846Z,5.70
2023-05-25T09:20:50.627Z,6.90
2023-05-25T09:23:19.623Z,5.30
2023-05-25T09:25:50.950Z,5.40
2023-05-25T09:30:53.691Z,5.70
2023-05-25T09:33:22.169Z,5.13
2023-05-25T09:35:51.791Z,5.43
2023-05-25T09:38:20.343Z,5.87
2023-05-25T09:40:49.090Z,6.03
2023-05-25T09:43:28.266Z,5.47
2023-05-25T09:46:05.659Z,5.47
2023-05-25T09:48:34.532Z,5.93
2023-05-25T09:51:02.492Z,5.90
2023-05-25T09:53:32.171Z,6.70
2023-05-25T09:56:03.765Z,5.93
2023-05-25T09:58:32.030Z,5.90
2023-05-25T10:01:00.947Z,5.50
2023-05-25T10:03:28.998Z,6.40
2023-05-25T10:05:57.790Z,5.70
2023-05-25T10:08:28.954Z,5.60
2023-05-25T10:10:57.255Z,5.87
2023-05-25T10:13:30.732Z,5.90
2023-05-25T10:16:00.480Z,5.63
2023-05-25T10:18:40.364Z,5.30
2023-05-25T10:21:10.835Z,5.67
2023-05-25T10:23:54.800Z,5.87
2023-05-25T10:26:29.366Z,6.00
2023-05-25T10:29:04.759Z,5.10
2023-05-25T10:31:37.737Z,5.50
2023-05-25T10:34:06.202Z,5.67
2023-05-25T10:36:36.947Z,6.50
2023-05-25T10:39:09.381Z,5.20
2023-05-25T10:41:37.488Z,5.03
2023-05-25T10:44:05.823Z,5.57
2023-05-25T10:46:33.820Z,5.00
2023-05-25T10:49:02.643Z,5.90
2023-05-25T10:51:43.937Z,5.57
2023-05-25T10:54:15.340Z,5.90
2023-05-25T10:57:18.867Z,5.03
2023-05-25T11:00:08.366Z,4.93
2023-05-25T11:02:56.096Z,5.80
2023-05-25T11:05:26.945Z,6.00
2023-05-25T11:08:00.678Z,6.47
2023-05-25T11:10:50.087Z,6.00
2023-05-25T11:13:40.811Z,5.90
2023-05-25T11:16:30.867Z,6.50
2023-05-25T11:18:59.864Z,4.93
2023-05-25T11:21:34.868Z,5.77
2023-05-25T11:24:18.095Z,5.40
2023-05-25T11:27:01.612Z,5.50
2023-05-25T11:29:33.275Z,5.57
2023-05-25T11:32:01.439Z,7.13
2023-05-25T11:34:34.431Z,6.77
2023-05-25T11:37:02.436Z,8.20
2023-05-25T11:39:34.234Z,5.80
2023-05-25T11:42:11.462Z,4.90
2023-05-25T11:44:39.425Z,4.47
2023-05-25T11:47:14.535Z,4.83
2023-05-25T11:49:49.924Z,4.40
2023-05-25T11:52:22.336Z,5.60
2023-05-25T11:54:50.455Z,4.80
2023-05-25T11:57:25.567Z,4.90
2023-05-25T12:00:07.127Z,5.43
2023-05-25T12:02:44.205Z,5.50
2023-05-25T12:05:12.221Z,4.33
2023-05-25T12:07:47.308Z,4.90
2023-05-25T12:10:19.390Z,4.80
2023-05-25T12:12:52.322Z,4.17
2023-05-25T12:15:26.643Z,5.63
2023-05-25T12:17:55.145Z,4.50
2023-05-25T12:20:23.571Z,5.20
2023-05-25T12:22:52.362Z,4.30
2023-05-25T12:25:26.023Z,4.80
2023-05-25T12:28:16.299Z,4.80
2023-05-25T12:30:45.594Z,5.00
2023-05-25T12:33:15.722Z,4.27
2023-05-25T12:35:51.227Z,4.63
2023-05-25T12:38:24.764Z,4.37
2023-05-25T12:41:08.914Z,4.50
2023-05-25T12:43:44.202Z,4.30
2023-05-25T12:46:12.468Z,4.03
2023-05-25T12:48:40.296Z,4.20
2023-05-25T12:51:10.182Z,4.20
2023-05-25T12:53:58.941Z,4.00
2023-05-25T12:56:27.089Z,3.83
2023-05-25T12:58:55.000Z,4.87
2023-05-25T13:01:23.090Z,4.50
2023-05-25T13:03:51.847Z,4.10
2023-05-25T13:06:19.732Z,3.23
2023-05-25T13:08:48.610Z,3.97
2023-05-25T13:11:17.199Z,4.50
2023-05-25T13:13:45.396Z,3.80
2023-05-25T13:16:13.249Z,3.70
2023-05-25T13:18:41.375Z,4.07
2023-05-25T13:21:10.125Z,4.03
2023-05-25T13:23:38.132Z,3.77
2023-05-25T13:26:06.753Z,3.50
2023-05-25T13:28:34.563Z,4.60
2023-05-25T13:31:02.807Z,3.97
2023-05-25T13:33:30.840Z,5.10
2023-05-25T13:35:59.073Z,3.60
2023-05-25T13:38:27.760Z,4.00
2023-05-25T13:40:55.659Z,3.63
2023-05-25T13:43:23.365Z,3.90
2023-05-25T13:45:51.216Z,3.40
2023-05-25T13:48:19.342Z,4.17
2023-05-25T13:50:47.268Z,3.87
2023-05-25T13:53:15.218Z,3.20
2023-05-25T13:55:44.453Z,4.50
2023-05-25T13:58:12.300Z,3.80
2023-05-25T14:00:40.129Z,4.40
2023-05-25T14:03:07.978Z,3.43
2023-05-25T14:05:35.969Z,3.63
2023-05-25T14:08:05.084Z,3.50
2023-05-25T14:10:33.013Z,3.50
2023-05-25T14:13:01.130Z,4.10
2023-05-25T14:15:28.877Z,4.00
2023-05-25T14:17:57.496Z,3.70
2023-05-25T14:20:26.516Z,3.27
2023-05-25T14:22:56.468Z,4.63
2023-05-25T14:25:24.952Z,3.57
2023-05-25T14:27:52.696Z,3.53
2023-05-25T14:30:21.187Z,3.80
2023-05-25T14:32:49.066Z,3.67
2023-05-25T14:35:16.946Z,2.90
2023-05-25T14:37:44.708Z,4.10
2023-05-25T14:40:13.830Z,4.00
2023-05-25T14:42:41.574Z,2.70
2023-05-25T14:45:11.375Z,3.30
2023-05-25T14:47:41.042Z,3.80
2023-05-25T14:50:09.423Z,3.87
2023-05-25T14:52:37.466Z,3.33
2023-05-25T14:55:06.148Z,3.23
2023-05-25T14:57:34.164Z,3.00
2023-05-25T15:00:02.206Z,3.33
2023-05-25T15:02:30.210Z,4.00
2023-05-25T15:04:58.758Z,3.47
2023-05-25T15:07:26.934Z,3.20
2023-05-25T15:09:54.919Z,3.60
2023-05-25T15:12:22.647Z,4.70
2023-05-25T15:14:50.648Z,5.03
2023-05-25T15:17:18.507Z,4.50
2023-05-25T15:19:46.193Z,4.07
2023-05-25T15:22:14.068Z,3.93
2023-05-25T15:24:42.945Z,3.40
2023-05-25T15:27:10.779Z,4.00
2023-05-25T15:29:38.691Z,4.40
2023-05-25T15:32:08.187Z,3.20
2023-05-25T15:34:37.034Z,2.70
2023-05-25T15:37:05.644Z,4.23
2023-05-25T15:39:33.572Z,3.60
2023-05-25T15:42:02.002Z,3.60
2023-05-25T15:44:30.425Z,3.60
2023-05-25T15:46:58.229Z,4.10
2023-05-25T15:49:26.239Z,4.57
2023-05-25T15:51:54.003Z,3.67
2023-05-25T15:54:21.860Z,3.77
2023-05-25T15:56:49.767Z,3.53
2023-05-25T15:59:17.588Z,3.80
2023-05-25T16:01:45.578Z,3.60
2023-05-25T16:04:13.580Z,4.10
2023-05-25T16:06:41.429Z,3.50
2023-05-25T16:09:09.336Z,3.80
2023-05-25T16:11:37.231Z,4.10
2023-05-25T16:14:05.054Z,3.70
2023-05-25T16:16:33.001Z,3.77
2023-05-25T16:19:00.949Z,3.87
2023-05-25T16:21:29.035Z,3.60
2023-05-25T16:23:56.806Z,3.70
2023-05-25T16:26:26.707Z,4.13
2023-05-25T16:28:54.537Z,4.33
2023-05-25T16:31:22.465Z,3.67
2023-05-25T16:33:50.288Z,4.20
2023-05-25T16:36:18.431Z,4.27
2023-05-25T16:38:46.292Z,3.60
2023-05-25T16:41:14.158Z,3.83
2023-05-25T16:43:41.871Z,4.20
2023-05-25T16:46:09.784Z,3.60
2023-05-25T16:48:37.602Z,3.83
2023-05-25T16:51:06.441Z,4.20
2023-05-25T16:53:34.524Z,4.23
2023-05-25T16:56:02.563Z,3.77
2023-05-25T16:58:30.340Z,3.70
2023-05-25T17:00:58.149Z,4.40
2023-05-25T17:03:26.312Z,4.40
2023-05-25T17:05:54.215Z,3.90
2023-05-25T17:08:22.097Z,4.50
2023-05-25T17:10:50.820Z,4.00
2023-05-25T17:13:18.658Z,3.90
2023-05-25T17:15:46.826Z,4.23
2023-05-25T17:18:16.022Z,3.60
2023-05-25T17:20:44.354Z,4.20
2023-05-25T17:23:12.272Z,4.53
2023-05-25T17:25:40.688Z,3.80
2023-05-25T17:28:08.867Z,4.40
2023-05-25T17:30:37.066Z,5.03
2023-05-25T17:33:05.147Z,4.67
2023-05-25T17:35:32.950Z,4.07
2023-05-25T17:38:00.696Z,4.60
2023-05-25T17:40:28.613Z,5.50
2023-05-25T17:42:56.353Z,4.70
2023-05-25T17:45:24.190Z,5.43
2023-05-25T17:47:52.096Z,4.90
2023-05-25T17:50:20.217Z,3.70
2023-05-25T17:52:48.071Z,4.40
2023-05-25T17:55:16.002Z,4.10
2023-05-25T17:57:44.036Z,4.30
2023-05-25T18:00:13.527Z,4.03
2023-05-25T18:02:41.618Z,4.77
2023-05-25T18:05:10.039Z,4.17
2023-05-25T18:07:38.011Z,3.67
2023-05-25T18:10:06.766Z,4.80
2023-05-25T18:12:34.438Z,5.03
2023-05-25T18:15:02.779Z,4.67
2023-05-25T18:17:30.596Z,4.27
2023-05-25T18:19:58.475Z,4.40
2023-05-25T18:22:26.339Z,4.50
2023-05-25T18:24:57.128Z,4.30
2023-05-25T18:27:27.694Z,4.63
2023-05-25T18:29:55.814Z,4.97
2023-05-25T18:32:23.848Z,4.20
2023-05-25T18:34:51.651Z,4.40
2023-05-25T18:37:19.525Z,4.67
2023-05-25T18:39:47.329Z,4.00
2023-05-25T18:42:15.265Z,4.20
2023-05-25T18:44:42.955Z,4.73
2023-05-25T18:47:11.640Z,4.90
2023-05-25T18:49:39.600Z,4.07
2023-05-25T18:52:09.463Z,5.63
2023-05-25T18:54:39.459Z,5.60
2023-05-25T18:57:07.570Z,5.57
2023-05-25T18:59:35.377Z,4.33
2023-05-25T19:02:03.507Z,4.80
2023-05-25T19:04:31.442Z,4.03
2023-05-25T19:06:59.669Z,4.70
2023-05-25T19:09:27.957Z,4.40
2023-05-25T19:11:55.876Z,4.60
2023-05-25T19:14:23.707Z,5.27
2023-05-25T19:16:51.608Z,4.77
2023-05-25T19:19:19.757Z,6.17
2023-05-25T19:21:47.361Z,5.47
2023-05-25T19:24:15.139Z,5.47
2023-05-25T19:26:42.875Z,3.90
2023-05-25T19:29:10.832Z,5.20
2023-05-25T19:31:38.738Z,4.83
2023-05-25T19:34:06.757Z,5.67
2023-05-25T19:36:34.736Z,5.30
2023-05-25T19:39:02.574Z,5.43
2023-05-25T19:41:30.371Z,5.50
2023-05-25T19:43:58.232Z,4.57
2023-05-25T19:46:26.156Z,5.17
2023-05-25T19:48:54.061Z,5.27
2023-05-25T19:51:23.923Z,4.83
2023-05-25T19:53:52.259Z,4.97
2023-05-25T19:56:20.026Z,5.30
2023-05-25T19:58:47.940Z,5.60
2023-05-25T20:01:16.168Z,6.10
2023-05-25T20:03:44.846Z,5.97
2023-05-25T20:06:12.728Z,5.63
2023-05-25T20:08:40.558Z,7.00
2023-05-25T20:11:08.591Z,4.80
2023-05-25T20:13:36.337Z,6.03
2023-05-25T20:16:04.213Z,6.20
2023-05-25T20:18:32.123Z,5.30
2023-05-25T20:20:59.958Z,6.60
2023-05-25T20:23:31.121Z,5.27
2023-05-25T20:25:59.065Z,5.37
2023-05-25T20:28:26.926Z,5.80
2023-05-25T20:30:54.813Z,7.00
2023-05-25T20:33:22.843Z,5.90
2023-05-25T20:35:51.133Z,6.70
2023-05-25T20:38:18.928Z,6.03
2023-05-25T20:40:46.712Z,6.30
2023-05-25T20:43:14.492Z,6.77
2023-05-25T20:45:42.311Z,6.80
2023-05-25T20:48:10.085Z,6.83
2023-05-25T20:50:37.909Z,6.43
2023-05-25T20:53:05.790Z,7.10
2023-05-25T20:55:33.596Z,5.80
2023-05-25T20:58:10.435Z,6.33
2023-05-25T21:00:41.094Z,6.40
2023-05-25T21:03:10.432Z,6.20
2023-05-25T21:05:38.867Z,6.70
2023-05-25T21:08:06.846Z,6.50
2023-05-25T21:10:34.825Z,6.70
2023-05-25T21:13:02.586Z,7.50
2023-05-25T21:15:30.896Z,5.43
2023-05-25T21:17:58.878Z,7.00
2023-05-25T21:20:27.403Z,6.93
2023-05-25T21:22:55.356Z,6.07
2023-05-25T21:25:23.180Z,7.03
2023-05-25T21:27:56.764Z,6.70
2023-05-25T21:30:25.055Z,7.37
2023-05-25T21:32:53.185Z,6.90
2023-05-25T21:35:21.662Z,6.53
2023-05-25T21:37:49.430Z,6.77
2023-05-25T21:40:17.429Z,7.30
2023-05-25T21:42:45.564Z,7.37
2023-05-25T21:45:14.042Z,6.13
2023-05-25T21:47:42.117Z,5.83
2023-05-25T21:50:10.213Z,6.07
2023-05-25T21:52:38.228Z,7.43
2023-05-25T21:55:07.115Z,6.13
2023-05-25T21:57:34.844Z,6.63
2023-05-25T22:00:02.856Z,6.30
2023-05-25T22:02:41.306Z,6.50
2023-05-25T22:05:09.422Z,5.80
2023-05-25T22:07:37.471Z,5.40
2023-05-25T22:10:08.921Z,6.10
2023-05-25T22:12:36.810Z,5.33
2023-05-25T22:15:07.225Z,6.87
2023-05-25T22:17:35.247Z,6.90
2023-05-25T22:22:33.842Z,5.13
2023-05-25T22:25:01.566Z,6.70
2023-05-25T22:27:29.570Z,6.73
2023-05-25T22:29:59.101Z,6.07
2023-05-25T22:32:27.584Z,5.77
2023-05-25T22:34:55.401Z,6.23
2023-05-25T22:37:23.569Z,5.53
2023-05-25T22:39:51.522Z,5.43
2023-05-25T22:42:19.385Z,6.27
2023-05-25T22:44:49.470Z,5.40
2023-05-25T22:47:17.955Z,6.97
2023-05-25T22:49:45.820Z,5.40
2023-05-25T22:52:13.820Z,6.37
2023-05-25T22:54:43.503Z,6.70
2023-05-25T22:57:11.442Z,5.50
2023-05-25T22:59:39.249Z,4.60
2023-05-25T23:02:07.632Z,6.43
2023-05-25T23:04:36.948Z,6.13
2023-05-25T23:07:05.012Z,5.90
2023-05-25T23:09:32.944Z,5.30
2023-05-25T23:12:00.992Z,5.17
2023-05-25T23:14:30.728Z,5.57
2023-05-25T23:16:58.683Z,4.90
2023-05-25T23:19:26.278Z,5.33
2023-05-25T23:21:54.573Z,5.33
2023-05-25T23:24:22.568Z,5.33
2023-05-25T23:26:50.527Z,5.63
2023-05-25T23:29:18.406Z,5.07
2023-05-25T23:31:47.600Z,5.40
2023-05-25T23:34:16.363Z,4.67
2023-05-25T23:36:44.241Z,4.10
2023-05-25T23:39:13.268Z,5.03
2023-05-25T23:41:41.264Z,4.27
2023-05-25T23:44:09.283Z,5.17
2023-05-25T23:46:37.130Z,5.73
2023-05-25T23:49:05.168Z,4.83
2023-05-25T23:51:33.001Z,4.77
2023-05-25T23:54:00.908Z,5.40
2023-05-25T23:56:28.661Z,5.57
2023-05-25T23:58:57.006Z,6.30
